sensor_id;sensor_type;location;lat;lon;timestamp;P1;durP1;ratioP1;P2;durP2;ratioP2
75456;SDS011;64036;48.266;14.192;2023-06-22T00:02:17;5.50;;;2.50;;
75456;SDS011;64036;48.266;14.192;2023-06-22T00:04:43;7.00;;;3.00;;
75456;SDS011;64036;48.266;14.192;2023-06-22T00:07:09;6.00;;;2.60;;
75456;SDS011;64036;48.266;14.192;2023-06-22T00:09:35;6.50;;;2.50;;
75456;SDS011;64036;48.266;14.192;2023-06-22T00:12:01;4.30;;;2.00;;
75456;SDS011;64036;48.266;14.192;2023-06-22T00:14:27;9.80;;;2.90;;
75456;SDS011;64036;48.266;14.192;2023-06-22T00:16:53;5.90;;;2.70;;
75456;SDS011;64036;48.266;14.192;2023-06-22T00:19:21;7.60;;;2.90;;
75456;SDS011;64036;48.266;14.192;2023-06-22T00:21:47;6.50;;;2.50;;
75456;SDS011;64036;48.266;14.192;2023-06-22T00:24:18;8.10;;;2.10;;
75456;SDS011;64036;48.266;14.192;2023-06-22T00:26:50;5.20;;;2.50;;
75456;SDS011;64036;48.266;14.192;2023-06-22T00:29:16;7.20;;;2.60;;
75456;SDS011;64036;48.266;14.192;2023-06-22T00:31:42;7.20;;;2.70;;
75456;SDS011;64036;48.266;14.192;2023-06-22T00:34:08;5.80;;;2.40;;
75456;SDS011;64036;48.266;14.192;2023-06-22T00:36:35;7.40;;;2.60;;
75456;SDS011;64036;48.266;14.192;2023-06-22T00:39:01;6.10;;;2.50;;
75456;SDS011;64036;48.266;14.192;2023-06-22T00:41:27;5.50;;;2.40;;
75456;SDS011;64036;48.266;14.192;2023-06-22T00:43:55;7.00;;;2.80;;
75456;SDS011;64036;48.266;14.192;2023-06-22T00:46:21;7.20;;;2.90;;
75456;SDS011;64036;48.266;14.192;2023-06-22T00:48:48;8.70;;;2.80;;
75456;SDS011;64036;48.266;14.192;2023-06-22T00:51:14;5.20;;;3.00;;
75456;SDS011;64036;48.266;14.192;2023-06-22T00:53:41;7.60;;;2.50;;
75456;SDS011;64036;48.266;14.192;2023-06-22T00:56:08;6.50;;;2.80;;
75456;SDS011;64036;48.266;14.192;2023-06-22T00:58:38;6.60;;;2.80;;
75456;SDS011;64036;48.266;14.192;2023-06-22T01:01:07;6.40;;;2.40;;
75456;SDS011;64036;48.266;14.192;2023-06-22T01:03:33;5.10;;;2.50;;
75456;SDS011;64036;48.266;14.192;2023-06-22T01:06:04;6.30;;;2.70;;
75456;SDS011;64036;48.266;14.192;2023-06-22T01:09:02;4.60;;;2.60;;
75456;SDS011;64036;48.266;14.192;2023-06-22T01:11:38;5.70;;;2.50;;
75456;SDS011;64036;48.266;14.192;2023-06-22T01:14:18;6.10;;;2.80;;
75456;SDS011;64036;48.266;14.192;2023-06-22T01:16:51;5.50;;;2.70;;
75456;SDS011;64036;48.266;14.192;2023-06-22T01:19:44;7.30;;;2.60;;
75456;SDS011;64036;48.266;14.192;2023-06-22T01:22:25;7.60;;;2.80;;
75456;SDS011;64036;48.266;14.192;2023-06-22T01:25:10;7.60;;;2.60;;
75456;SDS011;64036;48.266;14.192;2023-06-22T01:28:41;6.70;;;2.70;;
75456;SDS011;64036;48.266;14.192;2023-06-22T01:30:41;8.10;;;2.30;;
75456;SDS011;64036;48.266;14.192;2023-06-22T01:33:11;7.10;;;2.80;;
75456;SDS011;64036;48.266;14.192;2023-06-22T01:35:39;5.10;;;2.50;;
75456;SDS011;64036;48.266;14.192;2023-06-22T01:38:06;8.40;;;2.70;;
75456;SDS011;64036;48.266;14.192;2023-06-22T01:40:33;6.00;;;2.70;;
75456;SDS011;64036;48.266;14.192;2023-06-22T01:43:00;6.50;;;2.80;;
75456;SDS011;64036;48.266;14.192;2023-06-22T01:45:27;6.30;;;2.60;;
75456;SDS011;64036;48.266;14.192;2023-06-22T01:47:53;6.80;;;2.60;;
75456;SDS011;64036;48.266;14.192;2023-06-22T01:50:20;8.80;;;2.80;;
75456;SDS011;64036;48.266;14.192;2023-06-22T01:52:46;6.80;;;2.70;;
75456;SDS011;64036;48.266;14.192;2023-06-22T01:55:12;6.60;;;3.10;;
75456;SDS011;64036;48.266;14.192;2023-06-22T01:57:38;8.00;;;2.30;;
75456;SDS011;64036;48.266;14.192;2023-06-22T02:00:11;7.60;;;2.30;;
75456;SDS011;64036;48.266;14.192;2023-06-22T02:02:49;6.30;;;2.40;;
75456;SDS011;64036;48.266;14.192;2023-06-22T02:05:19;5.80;;;2.70;;
75456;SDS011;64036;48.266;14.192;2023-06-22T02:08:17;8.30;;;3.00;;
75456;SDS011;64036;48.266;14.192;2023-06-22T02:10:46;5.00;;;2.40;;
75456;SDS011;64036;48.266;14.192;2023-06-22T02:13:14;7.70;;;3.00;;
75456;SDS011;64036;48.266;14.192;2023-06-22T02:15:41;6.80;;;2.80;;
75456;SDS011;64036;48.266;14.192;2023-06-22T02:18:07;6.10;;;2.60;;
75456;SDS011;64036;48.266;14.192;2023-06-22T02:20:36;8.00;;;3.10;;
75456;SDS011;64036;48.266;14.192;2023-06-22T02:23:03;9.10;;;3.40;;
75456;SDS011;64036;48.266;14.192;2023-06-22T02:25:29;7.20;;;2.90;;
75456;SDS011;64036;48.266;14.192;2023-06-22T02:27:54;7.10;;;2.80;;
75456;SDS011;64036;48.266;14.192;2023-06-22T02:30:20;5.70;;;2.90;;
75456;SDS011;64036;48.266;14.192;2023-06-22T02:32:45;6.80;;;3.10;;
75456;SDS011;64036;48.266;14.192;2023-06-22T02:35:11;5.90;;;2.90;;
75456;SDS011;64036;48.266;14.192;2023-06-22T02:37:37;5.70;;;2.70;;
75456;SDS011;64036;48.266;14.192;2023-06-22T02:40:07;7.70;;;3.10;;
75456;SDS011;64036;48.266;14.192;2023-06-22T02:42:37;7.40;;;2.90;;
75456;SDS011;64036;48.266;14.192;2023-06-22T02:45:04;6.70;;;2.80;;
75456;SDS011;64036;48.266;14.192;2023-06-22T02:47:30;8.60;;;2.90;;
75456;SDS011;64036;48.266;14.192;2023-06-22T02:49:57;4.90;;;2.50;;
75456;SDS011;64036;48.266;14.192;2023-06-22T02:52:22;6.60;;;3.10;;
75456;SDS011;64036;48.266;14.192;2023-06-22T02:54:48;7.00;;;3.20;;
75456;SDS011;64036;48.266;14.192;2023-06-22T02:57:14;8.90;;;2.60;;
75456;SDS011;64036;48.266;14.192;2023-06-22T02:59:40;7.30;;;2.70;;
75456;SDS011;64036;48.266;14.192;2023-06-22T03:02:07;7.20;;;2.80;;
75456;SDS011;64036;48.266;14.192;2023-06-22T03:04:35;5.10;;;2.60;;
75456;SDS011;64036;48.266;14.192;2023-06-22T03:07:01;6.00;;;2.50;;
75456;SDS011;64036;48.266;14.192;2023-06-22T03:09:28;9.30;;;3.40;;
75456;SDS011;64036;48.266;14.192;2023-06-22T03:11:54;8.70;;;3.00;;
75456;SDS011;64036;48.266;14.192;2023-06-22T03:14:20;7.20;;;2.70;;
75456;SDS011;64036;48.266;14.192;2023-06-22T03:16:46;8.30;;;2.90;;
75456;SDS011;64036;48.266;14.192;2023-06-22T03:19:12;6.10;;;2.60;;
75456;SDS011;64036;48.266;14.192;2023-06-22T03:21:38;8.80;;;2.90;;
75456;SDS011;64036;48.266;14.192;2023-06-22T03:24:05;6.70;;;2.80;;
75456;SDS011;64036;48.266;14.192;2023-06-22T03:26:31;6.60;;;3.00;;
75456;SDS011;64036;48.266;14.192;2023-06-22T03:28:57;7.30;;;3.20;;
75456;SDS011;64036;48.266;14.192;2023-06-22T03:31:23;6.30;;;2.90;;
75456;SDS011;64036;48.266;14.192;2023-06-22T03:33:49;6.10;;;2.80;;
75456;SDS011;64036;48.266;14.192;2023-06-22T03:36:19;6.80;;;3.00;;
75456;SDS011;64036;48.266;14.192;2023-06-22T03:38:46;7.00;;;2.90;;
75456;SDS011;64036;48.266;14.192;2023-06-22T03:41:12;6.00;;;2.80;;
75456;SDS011;64036;48.266;14.192;2023-06-22T03:43:39;7.80;;;3.00;;
75456;SDS011;64036;48.266;14.192;2023-06-22T03:46:05;9.20;;;2.90;;
75456;SDS011;64036;48.266;14.192;2023-06-22T03:48:31;10.80;;;3.00;;
75456;SDS011;64036;48.266;14.192;2023-06-22T03:50:59;10.10;;;3.10;;
75456;SDS011;64036;48.266;14.192;2023-06-22T03:53:25;7.30;;;3.20;;
75456;SDS011;64036;48.266;14.192;2023-06-22T03:55:51;7.70;;;2.70;;
75456;SDS011;64036;48.266;14.192;2023-06-22T03:58:19;7.00;;;2.80;;
75456;SDS011;64036;48.266;14.192;2023-06-22T04:00:46;8.80;;;3.20;;
75456;SDS011;64036;48.266;14.192;2023-06-22T04:03:14;13.00;;;3.80;;
75456;SDS011;64036;48.266;14.192;2023-06-22T04:05:40;8.50;;;3.20;;
75456;SDS011;64036;48.266;14.192;2023-06-22T04:08:06;7.50;;;3.00;;
75456;SDS011;64036;48.266;14.192;2023-06-22T04:10:32;7.90;;;3.10;;
75456;SDS011;64036;48.266;14.192;2023-06-22T04:12:58;7.60;;;3.10;;
75456;SDS011;64036;48.266;14.192;2023-06-22T04:15:24;8.60;;;3.40;;
75456;SDS011;64036;48.266;14.192;2023-06-22T04:17:49;6.40;;;3.10;;
75456;SDS011;64036;48.266;14.192;2023-06-22T04:20:15;6.70;;;3.10;;
75456;SDS011;64036;48.266;14.192;2023-06-22T04:22:40;6.60;;;3.00;;
75456;SDS011;64036;48.266;14.192;2023-06-22T04:25:06;6.90;;;3.00;;
75456;SDS011;64036;48.266;14.192;2023-06-22T04:27:35;6.30;;;3.40;;
75456;SDS011;64036;48.266;14.192;2023-06-22T04:30:07;6.90;;;3.20;;
75456;SDS011;64036;48.266;14.192;2023-06-22T04:32:34;9.00;;;3.40;;
75456;SDS011;64036;48.266;14.192;2023-06-22T04:35:05;9.80;;;3.10;;
75456;SDS011;64036;48.266;14.192;2023-06-22T04:37:32;9.00;;;3.20;;
75456;SDS011;64036;48.266;14.192;2023-06-22T04:40:00;6.60;;;3.10;;
75456;SDS011;64036;48.266;14.192;2023-06-22T04:42:26;7.60;;;3.40;;
75456;SDS011;64036;48.266;14.192;2023-06-22T04:44:52;7.40;;;3.40;;
75456;SDS011;64036;48.266;14.192;2023-06-22T04:47:19;9.30;;;3.50;;
75456;SDS011;64036;48.266;14.192;2023-06-22T04:49:44;6.00;;;3.30;;
75456;SDS011;64036;48.266;14.192;2023-06-22T04:52:11;10.20;;;3.50;;
75456;SDS011;64036;48.266;14.192;2023-06-22T04:54:39;7.20;;;3.10;;
75456;SDS011;64036;48.266;14.192;2023-06-22T04:57:13;6.70;;;3.20;;
75456;SDS011;64036;48.266;14.192;2023-06-22T04:59:40;5.00;;;2.50;;
75456;SDS011;64036;48.266;14.192;2023-06-22T05:02:07;8.10;;;3.40;;
75456;SDS011;64036;48.266;14.192;2023-06-22T05:04:33;7.60;;;3.40;;
75456;SDS011;64036;48.266;14.192;2023-06-22T05:07:04;9.30;;;3.80;;
75456;SDS011;64036;48.266;14.192;2023-06-22T05:09:30;8.00;;;3.70;;
75456;SDS011;64036;48.266;14.192;2023-06-22T05:11:56;8.00;;;3.10;;
75456;SDS011;64036;48.266;14.192;2023-06-22T05:14:22;8.40;;;3.40;;
75456;SDS011;64036;48.266;14.192;2023-06-22T05:16:48;11.50;;;3.30;;
75456;SDS011;64036;48.266;14.192;2023-06-22T05:19:14;7.00;;;3.30;;
75456;SDS011;64036;48.266;14.192;2023-06-22T05:21:40;6.70;;;2.90;;
75456;SDS011;64036;48.266;14.192;2023-06-22T05:24:06;6.80;;;2.90;;
75456;SDS011;64036;48.266;14.192;2023-06-22T05:26:33;6.00;;;3.00;;
75456;SDS011;64036;48.266;14.192;2023-06-22T05:29:01;7.30;;;3.10;;
75456;SDS011;64036;48.266;14.192;2023-06-22T05:31:27;6.90;;;3.00;;
75456;SDS011;64036;48.266;14.192;2023-06-22T05:33:55;7.90;;;3.00;;
75456;SDS011;64036;48.266;14.192;2023-06-22T05:36:21;6.10;;;2.90;;
75456;SDS011;64036;48.266;14.192;2023-06-22T05:38:50;7.20;;;3.00;;
75456;SDS011;64036;48.266;14.192;2023-06-22T05:41:17;8.20;;;3.10;;
75456;SDS011;64036;48.266;14.192;2023-06-22T05:43:43;6.50;;;2.80;;
75456;SDS011;64036;48.266;14.192;2023-06-22T05:46:08;5.20;;;2.60;;
75456;SDS011;64036;48.266;14.192;2023-06-22T05:48:34;6.20;;;2.50;;
75456;SDS011;64036;48.266;14.192;2023-06-22T05:50:59;6.40;;;2.70;;
75456;SDS011;64036;48.266;14.192;2023-06-22T05:53:25;6.50;;;2.90;;
75456;SDS011;64036;48.266;14.192;2023-06-22T05:55:51;6.40;;;2.70;;
75456;SDS011;64036;48.266;14.192;2023-06-22T05:58:17;5.30;;;2.60;;
75456;SDS011;64036;48.266;14.192;2023-06-22T06:00:43;6.90;;;2.70;;
75456;SDS011;64036;48.266;14.192;2023-06-22T06:03:09;7.60;;;2.70;;
75456;SDS011;64036;48.266;14.192;2023-06-22T06:05:36;6.40;;;2.50;;
75456;SDS011;64036;48.266;14.192;2023-06-22T06:08:04;5.80;;;2.30;;
75456;SDS011;64036;48.266;14.192;2023-06-22T06:10:32;9.10;;;2.70;;
75456;SDS011;64036;48.266;14.192;2023-06-22T06:12:59;7.80;;;2.90;;
75456;SDS011;64036;48.266;14.192;2023-06-22T06:15:27;6.80;;;2.60;;
75456;SDS011;64036;48.266;14.192;2023-06-22T06:17:53;5.50;;;2.90;;
75456;SDS011;64036;48.266;14.192;2023-06-22T06:20:23;4.80;;;2.50;;
75456;SDS011;64036;48.266;14.192;2023-06-22T06:22:50;6.90;;;2.50;;
75456;SDS011;64036;48.266;14.192;2023-06-22T06:25:16;6.20;;;2.40;;
75456;SDS011;64036;48.266;14.192;2023-06-22T06:27:50;4.70;;;2.30;;
75456;SDS011;64036;48.266;14.192;2023-06-22T06:30:18;5.30;;;2.30;;
75456;SDS011;64036;48.266;14.192;2023-06-22T06:32:45;5.50;;;2.50;;
75456;SDS011;64036;48.266;14.192;2023-06-22T06:35:12;6.00;;;2.40;;
75456;SDS011;64036;48.266;14.192;2023-06-22T06:37:41;6.20;;;2.60;;
75456;SDS011;64036;48.266;14.192;2023-06-22T06:40:08;8.30;;;2.60;;
75456;SDS011;64036;48.266;14.192;2023-06-22T06:42:53;6.20;;;2.50;;
75456;SDS011;64036;48.266;14.192;2023-06-22T06:45:23;4.10;;;1.90;;
75456;SDS011;64036;48.266;14.192;2023-06-22T06:47:50;7.50;;;2.50;;
75456;SDS011;64036;48.266;14.192;2023-06-22T06:50:17;9.40;;;2.80;;
75456;SDS011;64036;48.266;14.192;2023-06-22T06:52:43;6.20;;;2.60;;
75456;SDS011;64036;48.266;14.192;2023-06-22T06:55:10;6.00;;;2.50;;
75456;SDS011;64036;48.266;14.192;2023-06-22T06:57:38;7.30;;;2.60;;
75456;SDS011;64036;48.266;14.192;2023-06-22T07:00:09;6.40;;;2.60;;
75456;SDS011;64036;48.266;14.192;2023-06-22T07:02:39;6.50;;;2.50;;
75456;SDS011;64036;48.266;14.192;2023-06-22T07:05:06;5.60;;;2.70;;
75456;SDS011;64036;48.266;14.192;2023-06-22T07:07:32;6.40;;;2.60;;
75456;SDS011;64036;48.266;14.192;2023-06-22T07:09:58;5.90;;;2.70;;
75456;SDS011;64036;48.266;14.192;2023-06-22T07:12:24;5.00;;;2.10;;
75456;SDS011;64036;48.266;14.192;2023-06-22T07:14:51;6.60;;;2.60;;
75456;SDS011;64036;48.266;14.192;2023-06-22T07:17:17;6.30;;;2.70;;
75456;SDS011;64036;48.266;14.192;2023-06-22T07:19:42;7.10;;;3.00;;
75456;SDS011;64036;48.266;14.192;2023-06-22T07:22:08;6.50;;;2.50;;
75456;SDS011;64036;48.266;14.192;2023-06-22T07:24:33;6.00;;;2.60;;
75456;SDS011;64036;48.266;14.192;2023-06-22T07:26:59;6.60;;;2.30;;
75456;SDS011;64036;48.266;14.192;2023-06-22T07:29:25;5.90;;;2.50;;
75456;SDS011;64036;48.266;14.192;2023-06-22T07:31:52;9.80;;;3.10;;
75456;SDS011;64036;48.266;14.192;2023-06-22T07:34:18;8.10;;;3.10;;
75456;SDS011;64036;48.266;14.192;2023-06-22T07:36:45;6.70;;;2.60;;
75456;SDS011;64036;48.266;14.192;2023-06-22T07:39:11;7.70;;;2.90;;
75456;SDS011;64036;48.266;14.192;2023-06-22T07:41:39;7.30;;;2.50;;
75456;SDS011;64036;48.266;14.192;2023-06-22T07:44:06;7.00;;;2.90;;
75456;SDS011;64036;48.266;14.192;2023-06-22T07:46:33;10.40;;;3.20;;
75456;SDS011;64036;48.266;14.192;2023-06-22T07:48:58;5.80;;;2.70;;
75456;SDS011;64036;48.266;14.192;2023-06-22T07:51:25;6.90;;;2.70;;
75456;SDS011;64036;48.266;14.192;2023-06-22T07:53:51;6.30;;;2.70;;
75456;SDS011;64036;48.266;14.192;2023-06-22T07:56:17;5.40;;;2.30;;
75456;SDS011;64036;48.266;14.192;2023-06-22T07:58:47;5.70;;;2.60;;
75456;SDS011;64036;48.266;14.192;2023-06-22T08:01:16;5.70;;;2.50;;
75456;SDS011;64036;48.266;14.192;2023-06-22T08:03:44;6.60;;;2.70;;
75456;SDS011;64036;48.266;14.192;2023-06-22T08:06:10;7.10;;;2.70;;
75456;SDS011;64036;48.266;14.192;2023-06-22T08:08:36;5.00;;;2.70;;
75456;SDS011;64036;48.266;14.192;2023-06-22T08:11:02;9.00;;;2.80;;
75456;SDS011;64036;48.266;14.192;2023-06-22T08:13:28;5.50;;;2.40;;
75456;SDS011;64036;48.266;14.192;2023-06-22T08:15:54;6.60;;;3.20;;
75456;SDS011;64036;48.266;14.192;2023-06-22T08:18:19;7.90;;;3.20;;
75456;SDS011;64036;48.266;14.192;2023-06-22T08:20:45;5.60;;;2.70;;
75456;SDS011;64036;48.266;14.192;2023-06-22T08:23:11;5.20;;;2.80;;
75456;SDS011;64036;48.266;14.192;2023-06-22T08:25:37;7.00;;;2.60;;
75456;SDS011;64036;48.266;14.192;2023-06-22T08:28:03;5.90;;;2.60;;
75456;SDS011;64036;48.266;14.192;2023-06-22T08:30:30;7.40;;;2.90;;
75456;SDS011;64036;48.266;14.192;2023-06-22T08:32:55;7.20;;;3.20;;
75456;SDS011;64036;48.266;14.192;2023-06-22T08:35:24;8.60;;;3.10;;
75456;SDS011;64036;48.266;14.192;2023-06-22T08:37:50;5.90;;;2.40;;
75456;SDS011;64036;48.266;14.192;2023-06-22T08:40:20;7.00;;;2.90;;
75456;SDS011;64036;48.266;14.192;2023-06-22T08:42:46;6.90;;;2.70;;
75456;SDS011;64036;48.266;14.192;2023-06-22T08:45:13;6.70;;;2.70;;
75456;SDS011;64036;48.266;14.192;2023-06-22T08:47:39;6.00;;;2.80;;
75456;SDS011;64036;48.266;14.192;2023-06-22T08:50:07;7.20;;;2.80;;
75456;SDS011;64036;48.266;14.192;2023-06-22T08:52:34;8.70;;;2.80;;
75456;SDS011;64036;48.266;14.192;2023-06-22T08:55:00;7.30;;;3.00;;
75456;SDS011;64036;48.266;14.192;2023-06-22T08:57:27;5.70;;;2.80;;
75456;SDS011;64036;48.266;14.192;2023-06-22T08:59:53;6.60;;;2.90;;
75456;SDS011;64036;48.266;14.192;2023-06-22T09:02:19;9.40;;;3.00;;
75456;SDS011;64036;48.266;14.192;2023-06-22T09:04:48;6.00;;;2.70;;
75456;SDS011;64036;48.266;14.192;2023-06-22T09:07:15;8.90;;;2.90;;
75456;SDS011;64036;48.266;14.192;2023-06-22T09:09:47;7.90;;;3.10;;
75456;SDS011;64036;48.266;14.192;2023-06-22T09:12:13;4.90;;;2.60;;
75456;SDS011;64036;48.266;14.192;2023-06-22T09:14:38;7.20;;;2.60;;
75456;SDS011;64036;48.266;14.192;2023-06-22T09:17:04;6.60;;;3.10;;
75456;SDS011;64036;48.266;14.192;2023-06-22T09:19:30;8.60;;;3.20;;
75456;SDS011;64036;48.266;14.192;2023-06-22T09:21:56;10.20;;;3.50;;
75456;SDS011;64036;48.266;14.192;2023-06-22T09:24:21;6.60;;;2.90;;
75456;SDS011;64036;48.266;14.192;2023-06-22T09:26:47;10.50;;;3.30;;
75456;SDS011;64036;48.266;14.192;2023-06-22T09:29:12;8.00;;;3.20;;
75456;SDS011;64036;48.266;14.192;2023-06-22T09:31:38;7.60;;;3.00;;
75456;SDS011;64036;48.266;14.192;2023-06-22T09:34:04;9.60;;;3.10;;
75456;SDS011;64036;48.266;14.192;2023-06-22T09:36:29;7.00;;;2.80;;
75456;SDS011;64036;48.266;14.192;2023-06-22T09:38:55;10.20;;;3.20;;
75456;SDS011;64036;48.266;14.192;2023-06-22T09:41:24;6.40;;;3.20;;
75456;SDS011;64036;48.266;14.192;2023-06-22T09:43:50;5.70;;;2.90;;
75456;SDS011;64036;48.266;14.192;2023-06-22T09:46:16;7.40;;;3.10;;
75456;SDS011;64036;48.266;14.192;2023-06-22T09:48:42;7.80;;;3.40;;
75456;SDS011;64036;48.266;14.192;2023-06-22T09:51:08;7.30;;;3.30;;
75456;SDS011;64036;48.266;14.192;2023-06-22T09:53:33;8.20;;;2.90;;
75456;SDS011;64036;48.266;14.192;2023-06-22T09:56:03;8.60;;;3.40;;
75456;SDS011;64036;48.266;14.192;2023-06-22T09:58:29;6.40;;;3.10;;
75456;SDS011;64036;48.266;14.192;2023-06-22T10:00:54;8.20;;;2.90;;
75456;SDS011;64036;48.266;14.192;2023-06-22T10:03:20;9.70;;;3.20;;
75456;SDS011;64036;48.266;14.192;2023-06-22T10:05:46;12.20;;;3.40;;
75456;SDS011;64036;48.266;14.192;2023-06-22T10:08:12;7.80;;;3.30;;
75456;SDS011;64036;48.266;14.192;2023-06-22T10:10:38;12.40;;;3.80;;
75456;SDS011;64036;48.266;14.192;2023-06-22T10:13:08;7.20;;;3.40;;
75456;SDS011;64036;48.266;14.192;2023-06-22T10:15:35;9.30;;;3.30;;
75456;SDS011;64036;48.266;14.192;2023-06-22T10:18:01;9.70;;;3.30;;
75456;SDS011;64036;48.266;14.192;2023-06-22T10:20:27;9.50;;;3.60;;
75456;SDS011;64036;48.266;14.192;2023-06-22T10:22:53;8.90;;;3.20;;
75456;SDS011;64036;48.266;14.192;2023-06-22T10:25:19;7.90;;;3.60;;
75456;SDS011;64036;48.266;14.192;2023-06-22T10:27:45;11.40;;;3.70;;
75456;SDS011;64036;48.266;14.192;2023-06-22T10:30:11;10.50;;;3.60;;
75456;SDS011;64036;48.266;14.192;2023-06-22T10:32:41;8.30;;;3.60;;
75456;SDS011;64036;48.266;14.192;2023-06-22T10:37:38;10.50;;;3.70;;
75456;SDS011;64036;48.266;14.192;2023-06-22T10:40:05;7.30;;;3.40;;
75456;SDS011;64036;48.266;14.192;2023-06-22T10:42:31;8.60;;;3.80;;
75456;SDS011;64036;48.266;14.192;2023-06-22T10:44:56;8.80;;;3.40;;
75456;SDS011;64036;48.266;14.192;2023-06-22T10:47:22;8.40;;;3.50;;
75456;SDS011;64036;48.266;14.192;2023-06-22T10:49:47;7.90;;;3.20;;
75456;SDS011;64036;48.266;14.192;2023-06-22T10:52:13;12.40;;;3.80;;
75456;SDS011;64036;48.266;14.192;2023-06-22T10:54:38;9.90;;;3.20;;
75456;SDS011;64036;48.266;14.192;2023-06-22T10:57:04;7.10;;;3.30;;
75456;SDS011;64036;48.266;14.192;2023-06-22T10:59:30;6.50;;;3.30;;
75456;SDS011;64036;48.266;14.192;2023-06-22T11:01:56;8.90;;;3.40;;
75456;SDS011;64036;48.266;14.192;2023-06-22T11:04:23;9.40;;;4.00;;
75456;SDS011;64036;48.266;14.192;2023-06-22T11:06:48;8.50;;;3.60;;
75456;SDS011;64036;48.266;14.192;2023-06-22T11:09:15;10.70;;;3.90;;
75456;SDS011;64036;48.266;14.192;2023-06-22T11:11:46;9.20;;;3.70;;
75456;SDS011;64036;48.266;14.192;2023-06-22T11:14:12;8.00;;;3.70;;
75456;SDS011;64036;48.266;14.192;2023-06-22T11:16:38;7.80;;;3.40;;
75456;SDS011;64036;48.266;14.192;2023-06-22T11:19:04;8.80;;;3.60;;
75456;SDS011;64036;48.266;14.192;2023-06-22T11:21:30;7.90;;;3.60;;
75456;SDS011;64036;48.266;14.192;2023-06-22T11:23:57;8.60;;;3.60;;
75456;SDS011;64036;48.266;14.192;2023-06-22T11:26:24;8.50;;;3.70;;
75456;SDS011;64036;48.266;14.192;2023-06-22T11:28:52;9.80;;;4.10;;
75456;SDS011;64036;48.266;14.192;2023-06-22T11:31:18;8.70;;;3.50;;
75456;SDS011;64036;48.266;14.192;2023-06-22T11:33:43;7.40;;;3.30;;
75456;SDS011;64036;48.266;14.192;2023-06-22T11:36:11;8.60;;;4.10;;
75456;SDS011;64036;48.266;14.192;2023-06-22T11:38:37;9.50;;;3.80;;
75456;SDS011;64036;48.266;14.192;2023-06-22T11:41:05;9.10;;;3.80;;
75456;SDS011;64036;48.266;14.192;2023-06-22T11:43:31;10.60;;;3.80;;
75456;SDS011;64036;48.266;14.192;2023-06-22T11:45:57;6.60;;;3.70;;
75456;SDS011;64036;48.266;14.192;2023-06-22T11:48:26;8.40;;;3.80;;
75456;SDS011;64036;48.266;14.192;2023-06-22T11:50:52;10.70;;;3.70;;
75456;SDS011;64036;48.266;14.192;2023-06-22T11:53:18;10.90;;;3.90;;
75456;SDS011;64036;48.266;14.192;2023-06-22T11:55:44;10.20;;;3.70;;
75456;SDS011;64036;48.266;14.192;2023-06-22T11:58:09;9.30;;;4.10;;
75456;SDS011;64036;48.266;14.192;2023-06-22T12:00:37;10.40;;;3.90;;
75456;SDS011;64036;48.266;14.192;2023-06-22T12:03:03;10.00;;;3.80;;
75456;SDS011;64036;48.266;14.192;2023-06-22T12:05:29;9.70;;;3.30;;
75456;SDS011;64036;48.266;14.192;2023-06-22T12:07:55;9.60;;;4.30;;
75456;SDS011;64036;48.266;14.192;2023-06-22T12:10:25;9.70;;;4.00;;
75456;SDS011;64036;48.266;14.192;2023-06-22T12:12:51;8.40;;;3.80;;
75456;SDS011;64036;48.266;14.192;2023-06-22T12:15:17;8.90;;;3.90;;
75456;SDS011;64036;48.266;14.192;2023-06-22T12:17:42;10.00;;;4.10;;
75456;SDS011;64036;48.266;14.192;2023-06-22T12:20:08;10.20;;;4.30;;
75456;SDS011;64036;48.266;14.192;2023-06-22T12:22:35;8.60;;;3.70;;
75456;SDS011;64036;48.266;14.192;2023-06-22T12:25:03;10.70;;;3.60;;
75456;SDS011;64036;48.266;14.192;2023-06-22T12:27:29;6.80;;;3.70;;
75456;SDS011;64036;48.266;14.192;2023-06-22T12:29:56;12.20;;;4.00;;
75456;SDS011;64036;48.266;14.192;2023-06-22T12:32:22;13.10;;;4.20;;
75456;SDS011;64036;48.266;14.192;2023-06-22T12:34:47;9.00;;;4.20;;
75456;SDS011;64036;48.266;14.192;2023-06-22T12:37:13;7.40;;;3.70;;
75456;SDS011;64036;48.266;14.192;2023-06-22T12:39:40;11.60;;;4.20;;
75456;SDS011;64036;48.266;14.192;2023-06-22T12:42:07;12.50;;;4.20;;
75456;SDS011;64036;48.266;14.192;2023-06-22T12:44:40;11.90;;;4.50;;
75456;SDS011;64036;48.266;14.192;2023-06-22T12:47:07;8.20;;;4.40;;
75456;SDS011;64036;48.266;14.192;2023-06-22T12:49:35;9.50;;;4.00;;
75456;SDS011;64036;48.266;14.192;2023-06-22T12:52:01;10.70;;;4.10;;
75456;SDS011;64036;48.266;14.192;2023-06-22T12:54:27;14.70;;;4.60;;
75456;SDS011;64036;48.266;14.192;2023-06-22T12:57:02;9.80;;;4.20;;
75456;SDS011;64036;48.266;14.192;2023-06-22T12:59:28;10.90;;;4.60;;
75456;SDS011;64036;48.266;14.192;2023-06-22T13:01:53;11.80;;;4.60;;
75456;SDS011;64036;48.266;14.192;2023-06-22T13:04:19;13.80;;;4.50;;
75456;SDS011;64036;48.266;14.192;2023-06-22T13:06:46;12.00;;;4.50;;
75456;SDS011;64036;48.266;14.192;2023-06-22T13:09:14;11.10;;;4.60;;
75456;SDS011;64036;48.266;14.192;2023-06-22T13:11:41;10.90;;;4.00;;
75456;SDS011;64036;48.266;14.192;2023-06-22T13:14:07;9.70;;;4.00;;
75456;SDS011;64036;48.266;14.192;2023-06-22T13:16:33;9.00;;;4.30;;
75456;SDS011;64036;48.266;14.192;2023-06-22T13:18:58;10.20;;;4.40;;
75456;SDS011;64036;48.266;14.192;2023-06-22T13:21:24;12.60;;;4.30;;
75456;SDS011;64036;48.266;14.192;2023-06-22T13:23:49;10.20;;;4.50;;
75456;SDS011;64036;48.266;14.192;2023-06-22T13:26:15;10.70;;;4.50;;
75456;SDS011;64036;48.266;14.192;2023-06-22T13:28:41;8.70;;;4.20;;
75456;SDS011;64036;48.266;14.192;2023-06-22T13:31:07;10.20;;;4.20;;
75456;SDS011;64036;48.266;14.192;2023-06-22T13:33:37;11.00;;;4.80;;
75456;SDS011;64036;48.266;14.192;2023-06-22T13:36:06;9.70;;;4.20;;
75456;SDS011;64036;48.266;14.192;2023-06-22T13:38:34;6.60;;;4.00;;
75456;SDS011;64036;48.266;14.192;2023-06-22T13:41:04;9.10;;;4.20;;
75456;SDS011;64036;48.266;14.192;2023-06-22T13:43:30;11.20;;;4.70;;
75456;SDS011;64036;48.266;14.192;2023-06-22T13:45:56;8.00;;;4.20;;
75456;SDS011;64036;48.266;14.192;2023-06-22T13:48:21;11.10;;;5.10;;
75456;SDS011;64036;48.266;14.192;2023-06-22T13:50:49;11.50;;;4.70;;
75456;SDS011;64036;48.266;14.192;2023-06-22T13:53:14;15.60;;;5.10;;
75456;SDS011;64036;48.266;14.192;2023-06-22T13:55:40;12.00;;;4.80;;
75456;SDS011;64036;48.266;14.192;2023-06-22T13:58:06;8.50;;;4.00;;
75456;SDS011;64036;48.266;14.192;2023-06-22T14:00:32;11.30;;;4.50;;
75456;SDS011;64036;48.266;14.192;2023-06-22T14:02:57;8.30;;;3.80;;
75456;SDS011;64036;48.266;14.192;2023-06-22T14:05:23;10.80;;;4.70;;
75456;SDS011;64036;48.266;14.192;2023-06-22T14:07:48;12.40;;;4.90;;
75456;SDS011;64036;48.266;14.192;2023-06-22T14:10:14;11.20;;;4.50;;
75456;SDS011;64036;48.266;14.192;2023-06-22T14:12:40;10.20;;;4.60;;
75456;SDS011;64036;48.266;14.192;2023-06-22T14:15:06;16.20;;;5.40;;
75456;SDS011;64036;48.266;14.192;2023-06-22T14:17:32;11.20;;;4.30;;
75456;SDS011;64036;48.266;14.192;2023-06-22T14:19:57;12.50;;;4.60;;
75456;SDS011;64036;48.266;14.192;2023-06-22T14:22:23;14.90;;;4.70;;
75456;SDS011;64036;48.266;14.192;2023-06-22T14:24:49;9.30;;;4.30;;
75456;SDS011;64036;48.266;14.192;2023-06-22T14:27:15;11.30;;;5.20;;
75456;SDS011;64036;48.266;14.192;2023-06-22T14:29:42;11.90;;;5.10;;
75456;SDS011;64036;48.266;14.192;2023-06-22T14:32:08;11.60;;;5.20;;
75456;SDS011;64036;48.266;14.192;2023-06-22T14:34:34;8.40;;;4.50;;
75456;SDS011;64036;48.266;14.192;2023-06-22T14:37:06;10.30;;;5.00;;